Time,TemperatureF,DewpointF,PressureIn,WindDirection,WindDirectionDegrees,WindSpeedMPH,WindSpeedGustMPH,Humidity,HourlyPrecipIn,Conditions,Clouds,dailyrainin,SoftwareType,DateUTC
2013-05-31 00:03:00,76.6,73.0,0.00,North,0,4.7,7.6,86,0.00,,,-99.99,Homeseer,2013-05-31 04:03:00,
2013-05-31 00:14:00,76.6,73.8,0.00,South,180,3.6,4.3,89,0.00,,,-99.99,Homeseer,2013-05-31 04:14:00,
2013-05-31 00:24:00,76.6,74.4,0.00,South,180,6.5,6.5,91,0.00,,,-99.99,Homeseer,2013-05-31 04:24:00,
2013-05-31 00:34:00,76.5,74.8,0.00,North,0,5.6,6.5,93,0.00,,,-99.99,Homeseer,2013-05-31 04:34:00,
2013-05-31 00:44:00,76.3,74.6,0.00,South,180,4.0,4.9,93,0.00,,,-99.99,Homeseer,2013-05-31 04:44:00,
2013-05-31 00:54:00,76.8,74.8,0.00,SSE,157,7.2,7.2,92,0.00,,,-99.99,Homeseer,2013-05-31 04:54:00,
2013-05-31 01:04:00,76.6,75.1,0.00,SE,135,5.6,11.2,94,0.00,,,-99.99,Homeseer,2013-05-31 05:04:00,
2013-05-31 01:14:00,76.8,74.6,0.00,North,0,9.0,12.5,91,0.00,,,-99.99,Homeseer,2013-05-31 05:14:00,
2013-05-31 01:24:00,76.8,74.3,0.00,ESE,112,3.8,7.4,90,0.00,,,-99.99,Homeseer,2013-05-31 05:24:00,
2013-05-31 01:34:00,77.2,74.2,0.00,ESE,112,9.2,9.2,88,0.00,,,-99.99,Homeseer,2013-05-31 05:34:00,
2013-05-31 01:44:00,77.2,74.2,0.00,North,0,8.5,8.5,88,0.00,,,-99.99,Homeseer,2013-05-31 05:44:00,
2013-05-31 01:54:00,77.4,72.4,0.00,ESE,112,11.2,15.4,81,0.00,,,-99.99,Homeseer,2013-05-31 05:54:00,
2013-05-31 02:03:00,77.4,72.4,0.00,ESE,112,7.6,9.2,81,0.00,,,-99.99,Homeseer,2013-05-31 06:03:00,
2013-05-31 02:14:00,77.5,71.9,0.00,ESE,112,12.3,12.3,79,0.00,,,-99.99,Homeseer,2013-05-31 06:14:00,
2013-05-31 02:24:00,77.5,71.9,0.00,SSE,157,10.3,10.7,79,0.00,,,-99.99,Homeseer,2013-05-31 06:24:00,
2013-05-31 02:34:00,77.5,71.6,0.00,North,0,8.7,10.1,78,0.00,,,-99.99,Homeseer,2013-05-31 06:34:00,
2013-05-31 02:44:00,77.5,71.6,0.00,East,90,9.0,9.0,78,0.00,,,-99.99,Homeseer,2013-05-31 06:44:00,
2013-05-31 02:54:00,77.5,71.9,0.00,East,90,6.3,10.1,79,0.00,,,-99.99,Homeseer,2013-05-31 06:54:00,
2013-05-31 03:04:00,77.4,72.1,0.00,SSE,157,7.8,7.8,80,0.00,,,-99.99,Homeseer,2013-05-31 07:04:00,
2013-05-31 03:14:00,76.8,73.8,0.00,SE,135,9.0,12.8,88,0.00,,,-99.99,Homeseer,2013-05-31 07:14:00,
2013-05-31 03:24:00,76.8,73.5,0.00,SSE,157,7.2,11.0,87,0.00,,,-99.99,Homeseer,2013-05-31 07:24:00,
2013-05-31 03:34:00,77.4,72.7,0.00,SE,135,8.5,8.5,82,0.00,,,-99.99,Homeseer,2013-05-31 07:34:00,
2013-05-31 03:44:00,77.5,72.5,0.00,South,180,5.8,8.5,81,0.00,,,-99.99,Homeseer,2013-05-31 07:44:00,
2013-05-31 03:54:00,77.5,72.8,0.00,North,0,4.7,5.8,82,0.00,,,-99.99,Homeseer,2013-05-31 07:54:00,
2013-05-31 04:03:00,77.5,72.2,0.00,SE,135,10.1,10.1,80,0.00,,,-99.99,Homeseer,2013-05-31 08:03:00,
2013-05-31 04:14:00,77.5,73.4,0.00,SSE,157,4.9,12.5,84,0.00,,,-99.99,Homeseer,2013-05-31 08:14:00,
2013-05-31 04:24:00,77.5,72.8,0.00,SE,135,6.5,6.5,82,0.00,,,-99.99,Homeseer,2013-05-31 08:24:00,
2013-05-31 04:34:00,76.6,74.1,0.00,SSE,157,6.9,8.1,90,0.00,,,-99.99,Homeseer,2013-05-31 08:34:00,
2013-05-31 04:44:00,76.3,74.6,0.00,ESE,112,9.4,10.3,93,0.00,,,-99.99,Homeseer,2013-05-31 08:44:00,
2013-05-31 04:54:00,75.2,74.0,0.00,ESE,112,6.0,6.0,95,0.00,,,-99.99,Homeseer,2013-05-31 08:54:00,
2013-05-31 05:04:00,75.4,74.4,0.00,SSE,157,6.7,6.7,96,0.00,,,-99.99,Homeseer,2013-05-31 09:04:00,
2013-05-31 05:14:00,75.6,74.4,0.00,SSE,157,5.8,8.5,95,0.00,,,-99.99,Homeseer,2013-05-31 09:14:00,
2013-05-31 05:24:00,74.7,74.2,0.00,SSE,157,5.8,6.3,98,0.00,,,-99.99,Homeseer,2013-05-31 09:24:00,
2013-05-31 05:34:00,75.4,74.2,0.00,South,180,6.0,6.0,95,0.00,,,-99.99,Homeseer,2013-05-31 09:34:00,
2013-05-31 05:44:00,76.5,75.0,0.00,ESE,112,6.9,8.5,94,0.00,,,-99.99,Homeseer,2013-05-31 09:44:00,
2013-05-31 05:54:00,76.3,74.6,0.00,ESE,112,2.0,5.4,93,0.00,,,-99.99,Homeseer,2013-05-31 09:54:00,
2013-05-31 06:03:00,76.5,74.0,0.00,South,180,6.0,10.7,90,0.00,,,-99.99,Homeseer,2013-05-31 10:03:00,
2013-05-31 06:14:00,76.3,74.6,0.00,SE,135,6.5,6.5,93,0.00,,,-99.99,Homeseer,2013-05-31 10:14:00,
2013-05-31 06:24:00,76.3,74.6,0.00,SSE,157,6.5,6.5,93,0.00,,,-99.99,Homeseer,2013-05-31 10:24:00,
2013-05-31 06:34:00,76.1,73.1,0.00,SSE,157,8.5,9.4,88,0.00,,,-99.99,Homeseer,2013-05-31 10:34:00,
2013-05-31 06:44:00,76.6,74.1,0.00,ESE,112,4.7,8.7,90,0.00,,,-99.99,Homeseer,2013-05-31 10:44:00,
2013-05-31 06:54:00,77.0,74.2,0.00,SE,135,6.9,10.3,89,0.00,,,-99.99,Homeseer,2013-05-31 10:54:00,
2013-05-31 07:04:00,77.5,74.2,0.00,SSE,157,7.4,7.4,87,0.00,,,-99.99,Homeseer,2013-05-31 11:04:00,
2013-05-31 07:14:00,77.9,72.6,0.00,ESE,112,5.6,5.6,80,0.00,,,-99.99,Homeseer,2013-05-31 11:14:00,
2013-05-31 07:24:00,77.9,73.5,0.00,SE,135,7.4,7.4,83,0.00,,,-99.99,Homeseer,2013-05-31 11:24:00,
2013-05-31 07:34:00,78.1,73.7,0.00,SE,135,7.2,7.2,83,0.00,,,-99.99,Homeseer,2013-05-31 11:34:00,
2013-05-31 07:44:00,78.3,74.1,0.00,South,180,6.5,6.5,84,0.00,,,-99.99,Homeseer,2013-05-31 11:44:00,
2013-05-31 07:54:00,78.3,73.3,0.00,SSE,157,7.6,7.6,81,0.00,,,-99.99,Homeseer,2013-05-31 11:54:00,
2013-05-31 08:03:00,78.4,73.4,0.00,SSE,157,6.9,6.9,81,0.00,,,-99.99,Homeseer,2013-05-31 12:03:00,
2013-05-31 08:14:00,78.8,74.4,0.00,ESE,112,5.8,8.1,83,0.00,,,-99.99,Homeseer,2013-05-31 12:14:00,
2013-05-31 08:24:00,80.1,73.8,0.00,South,180,6.9,7.6,77,0.00,,,-99.99,Homeseer,2013-05-31 12:24:00,
2013-05-31 08:34:00,80.6,73.1,0.00,North,0,6.3,6.3,73,0.00,,,-99.99,Homeseer,2013-05-31 12:34:00,
2013-05-31 08:44:00,80.1,72.6,0.00,North,0,7.8,7.8,73,0.00,,,-99.99,Homeseer,2013-05-31 12:44:00,
2013-05-31 08:54:00,80.4,73.8,0.00,SE,135,6.0,6.0,76,0.00,,,-99.99,Homeseer,2013-05-31 12:54:00,
2013-05-31 09:04:00,81.9,75.0,0.00,SE,135,3.6,3.6,75,0.00,,,-99.99,Homeseer,2013-05-31 13:04:00,
2013-05-31 09:14:00,82.0,73.1,0.00,ESE,112,6.5,8.7,69,0.00,,,-99.99,Homeseer,2013-05-31 13:14:00,
2013-05-31 09:24:00,82.0,72.8,0.00,North,0,6.9,8.7,68,0.00,,,-99.99,Homeseer,2013-05-31 13:24:00,
2013-05-31 09:34:00,81.3,73.1,0.00,ESE,112,5.6,11.0,71,0.00,,,-99.99,Homeseer,2013-05-31 13:34:00,
2013-05-31 09:44:00,82.0,72.8,0.00,SE,135,7.6,10.3,68,0.00,,,-99.99,Homeseer,2013-05-31 13:44:00,
2013-05-31 09:54:00,82.2,73.3,0.00,SSE,157,3.6,6.0,69,0.00,,,-99.99,Homeseer,2013-05-31 13:54:00,
2013-05-31 10:03:00,82.6,72.6,0.00,SW,225,4.3,4.3,66,0.00,,,-99.99,Homeseer,2013-05-31 14:03:00,
2013-05-31 10:14:00,83.1,72.7,0.00,ESE,112,4.5,4.5,65,0.00,,,-99.99,Homeseer,2013-05-31 14:14:00,
2013-05-31 10:23:00,82.9,72.2,0.00,SSE,157,6.3,6.3,64,0.00,,,-99.99,Homeseer,2013-05-31 14:23:00,
2013-05-31 10:33:00,83.8,72.7,0.00,SSE,157,6.0,6.0,63,0.00,,,-99.99,Homeseer,2013-05-31 14:33:00,
2013-05-31 10:43:00,84.0,72.5,0.00,SSE,157,6.3,6.3,62,0.00,,,-99.99,Homeseer,2013-05-31 14:43:00,
2013-05-31 10:53:00,84.4,71.7,0.00,ESE,112,4.0,7.2,59,0.00,,,-99.99,Homeseer,2013-05-31 14:53:00,
2013-05-31 11:03:00,84.0,73.2,0.00,ESE,112,6.0,7.4,64,0.00,,,-99.99,Homeseer,2013-05-31 15:03:00,
2013-05-31 11:13:00,84.6,73.0,0.00,ENE,67,4.5,5.6,62,0.00,,,-99.99,Homeseer,2013-05-31 15:13:00,
2013-05-31 11:23:00,84.9,72.6,0.00,ESE,112,5.8,5.8,60,0.00,,,-99.99,Homeseer,2013-05-31 15:23:00,
2013-05-31 11:33:00,85.1,72.0,0.00,ESE,112,5.6,8.1,58,0.00,,,-99.99,Homeseer,2013-05-31 15:33:00,
2013-05-31 11:43:00,83.3,71.5,0.00,SSE,157,9.4,9.6,61,0.00,,,-99.99,Homeseer,2013-05-31 15:43:00,
2013-05-31 11:53:00,83.7,72.2,0.00,SSE,157,5.6,9.4,62,0.00,,,-99.99,Homeseer,2013-05-31 15:53:00,
2013-05-31 12:04:00,83.7,72.2,0.00,SSE,157,3.1,4.9,62,0.00,,,-99.99,Homeseer,2013-05-31 16:04:00,
2013-05-31 12:14:00,84.2,72.3,0.00,ESE,112,6.3,7.4,61,0.00,,,-99.99,Homeseer,2013-05-31 16:14:00,
2013-05-31 12:23:00,84.4,72.9,0.00,ESE,112,7.6,7.6,62,0.00,,,-99.99,Homeseer,2013-05-31 16:23:00,
2013-05-31 12:33:00,84.4,72.9,0.00,SSE,157,4.9,6.0,62,0.00,,,-99.99,Homeseer,2013-05-31 16:33:00,
2013-05-31 12:43:00,85.3,71.7,0.00,SE,135,4.0,8.1,57,0.00,,,-99.99,Homeseer,2013-05-31 16:43:00,
2013-05-31 12:53:00,84.7,72.4,0.00,ESE,112,7.6,9.6,60,0.00,,,-99.99,Homeseer,2013-05-31 16:53:00,
2013-05-31 13:03:00,84.9,71.8,0.00,ESE,112,7.6,9.4,58,0.00,,,-99.99,Homeseer,2013-05-31 17:03:00,
2013-05-31 13:13:00,84.7,71.6,0.00,ESE,112,7.2,10.7,58,0.00,,,-99.99,Homeseer,2013-05-31 17:13:00,
2013-05-31 13:23:00,84.6,72.3,0.00,ESE,112,6.3,6.3,60,0.00,,,-99.99,Homeseer,2013-05-31 17:23:00,
2013-05-31 13:33:00,85.1,71.1,0.00,SSE,157,4.9,5.4,56,0.00,,,-99.99,Homeseer,2013-05-31 17:33:00,
2013-05-31 13:43:00,84.9,71.0,0.00,SE,135,6.5,6.5,56,0.00,,,-99.99,Homeseer,2013-05-31 17:43:00,
2013-05-31 13:53:00,84.2,70.7,0.00,ESE,112,8.1,8.7,57,0.00,,,-99.99,Homeseer,2013-05-31 17:53:00,
2013-05-31 14:04:00,84.6,71.1,0.00,ESE,112,6.7,7.8,57,0.00,,,-99.99,Homeseer,2013-05-31 18:04:00,
2013-05-31 14:14:00,84.4,70.9,0.00,ESE,112,7.6,7.6,57,0.00,,,-99.99,Homeseer,2013-05-31 18:14:00,
2013-05-31 14:23:00,85.1,69.4,0.00,ESE,112,5.8,6.3,52,0.00,,,-99.99,Homeseer,2013-05-31 18:23:00,
2013-05-31 14:33:00,86.0,71.5,0.00,SSE,157,4.0,4.3,55,0.00,,,-99.99,Homeseer,2013-05-31 18:33:00,
2013-05-31 14:43:00,85.1,71.1,0.00,SSE,157,5.4,5.4,56,0.00,,,-99.99,Homeseer,2013-05-31 18:43:00,
2013-05-31 14:53:00,85.3,70.9,0.00,ESE,112,4.9,6.3,55,0.00,,,-99.99,Homeseer,2013-05-31 18:53:00,
2013-05-31 15:03:00,84.2,70.7,0.00,SE,135,5.6,7.6,57,0.00,,,-99.99,Homeseer,2013-05-31 19:03:00,
2013-05-31 15:13:00,82.8,71.7,0.00,SE,135,7.4,12.1,63,0.00,,,-99.99,Homeseer,2013-05-31 19:13:00,
2013-05-31 15:23:00,82.4,70.6,0.00,SSE,157,7.8,8.7,61,0.00,,,-99.99,Homeseer,2013-05-31 19:23:00,
2013-05-31 15:33:00,81.5,70.5,0.00,ESE,112,6.7,6.7,63,0.00,,,-99.99,Homeseer,2013-05-31 19:33:00,
2013-05-31 15:43:00,80.8,70.6,0.00,SE,135,8.1,12.1,65,0.00,,,-99.99,Homeseer,2013-05-31 19:43:00,
2013-05-31 15:53:00,80.8,71.6,0.00,North,0,4.0,6.5,68,0.00,,,-99.99,Homeseer,2013-05-31 19:53:00,
2013-05-31 16:04:00,81.3,71.8,0.00,SE,135,5.6,6.5,67,0.00,,,-99.99,Homeseer,2013-05-31 20:04:00,
2013-05-31 16:14:00,81.7,74.1,0.00,North,0,6.7,6.7,73,0.00,,,-99.99,Homeseer,2013-05-31 20:14:00,
2013-05-31 16:24:00,82.0,73.1,0.00,SE,135,4.9,4.9,69,0.00,,,-99.99,Homeseer,2013-05-31 20:24:00,
2013-05-31 16:33:00,82.8,72.8,0.00,ESE,112,5.6,6.9,66,0.00,,,-99.99,Homeseer,2013-05-31 20:33:00,
2013-05-31 16:43:00,82.9,72.2,0.00,ESE,112,7.2,9.6,64,0.00,,,-99.99,Homeseer,2013-05-31 20:43:00,
2013-05-31 16:53:00,83.5,72.4,0.00,SSE,157,6.3,6.3,63,0.00,,,-99.99,Homeseer,2013-05-31 20:53:00,
2013-05-31 17:03:00,83.3,72.6,0.00,SE,135,5.8,5.8,64,0.00,,,-99.99,Homeseer,2013-05-31 21:03:00,
2013-05-31 17:13:00,83.5,72.0,0.00,ESE,112,6.7,6.7,62,0.00,,,-99.99,Homeseer,2013-05-31 21:13:00,
2013-05-31 17:23:00,83.1,72.4,0.00,SE,135,6.9,7.2,64,0.00,,,-99.99,Homeseer,2013-05-31 21:23:00,
2013-05-31 17:33:00,82.4,72.4,0.00,South,180,6.7,6.7,66,0.00,,,-99.99,Homeseer,2013-05-31 21:33:00,
2013-05-31 17:43:00,82.0,72.4,0.00,SE,135,6.0,6.0,67,0.00,,,-99.99,Homeseer,2013-05-31 21:43:00,
2013-05-31 17:53:00,81.0,72.5,0.00,SSE,157,6.3,7.4,70,0.00,,,-99.99,Homeseer,2013-05-31 21:53:00,
2013-05-31 18:04:00,80.1,73.2,0.00,ESE,112,7.6,7.6,75,0.00,,,-99.99,Homeseer,2013-05-31 22:04:00,
2013-05-31 18:14:00,79.3,76.2,0.00,ESE,112,9.0,10.7,88,0.00,,,-99.99,Homeseer,2013-05-31 22:14:00,
2013-05-31 18:23:00,79.3,76.5,0.00,SE,135,9.4,9.4,89,0.00,,,-99.99,Homeseer,2013-05-31 22:23:00,
2013-05-31 18:33:00,79.3,76.0,0.00,SSE,157,9.2,9.2,87,0.00,,,-99.99,Homeseer,2013-05-31 22:33:00,
2013-05-31 18:43:00,79.2,75.6,0.00,ESE,112,6.5,6.5,86,0.00,,,-99.99,Homeseer,2013-05-31 22:43:00,
2013-05-31 18:53:00,79.2,75.0,0.00,SSE,157,6.3,8.7,84,0.00,,,-99.99,Homeseer,2013-05-31 22:53:00,
2013-05-31 19:03:00,79.3,74.6,0.00,SE,135,5.8,5.8,82,0.00,,,-99.99,Homeseer,2013-05-31 23:03:00,
2013-05-31 19:13:00,79.3,74.3,0.00,ENE,67,4.7,4.7,81,0.00,,,-99.99,Homeseer,2013-05-31 23:13:00,
2013-05-31 19:23:00,79.2,75.6,0.00,North,0,4.0,4.0,86,0.00,,,-99.99,Homeseer,2013-05-31 23:23:00,
2013-05-31 19:33:00,79.2,74.7,0.00,SE,135,6.5,6.5,83,0.00,,,-99.99,Homeseer,2013-05-31 23:33:00,
2013-05-31 19:43:00,79.3,74.8,0.00,SE,135,4.7,4.7,83,0.00,,,-99.99,Homeseer,2013-05-31 23:43:00,
2013-05-31 19:53:00,79.3,74.0,0.00,SE,135,5.8,5.8,80,0.00,,,-99.99,Homeseer,2013-05-31 23:53:00,
2013-05-31 20:04:00,79.2,74.2,0.00,SSE,157,6.3,6.3,81,0.00,,,-99.99,Homeseer,2013-06-01 00:04:00,
2013-05-31 20:14:00,79.2,75.0,0.00,SSE,157,4.7,5.4,84,0.00,,,-99.99,Homeseer,2013-06-01 00:14:00,
2013-05-31 20:23:00,79.2,75.6,0.00,SSE,157,5.8,5.8,86,0.00,,,-99.99,Homeseer,2013-06-01 00:23:00,
2013-05-31 20:33:00,79.2,75.0,0.00,SSE,157,4.0,7.4,84,0.00,,,-99.99,Homeseer,2013-06-01 00:33:00,
2013-05-31 20:43:00,79.2,75.6,0.00,SSE,157,3.6,4.9,86,0.00,,,-99.99,Homeseer,2013-06-01 00:43:00,
2013-05-31 20:53:00,79.0,76.2,0.00,ESE,112,5.8,5.8,89,0.00,,,-99.99,Homeseer,2013-06-01 00:53:00,
2013-05-31 21:03:00,79.0,75.9,0.00,SE,135,3.1,8.1,88,0.00,,,-99.99,Homeseer,2013-06-01 01:03:00,
2013-05-31 21:13:00,78.8,76.0,0.00,ESE,112,5.4,5.4,89,0.00,,,-99.99,Homeseer,2013-06-01 01:13:00,
2013-05-31 21:23:00,78.6,75.8,0.00,SE,135,4.0,4.9,89,0.00,,,-99.99,Homeseer,2013-06-01 01:23:00,
2013-05-31 21:33:00,78.4,76.1,0.00,ESE,112,4.0,6.0,91,0.00,,,-99.99,Homeseer,2013-06-01 01:33:00,
2013-05-31 21:43:00,78.4,76.4,0.00,ESE,112,5.6,7.4,92,0.00,,,-99.99,Homeseer,2013-06-01 01:43:00,
2013-05-31 21:53:00,78.3,76.0,0.00,ESE,112,4.7,5.4,91,0.00,,,-99.99,Homeseer,2013-06-01 01:53:00,
2013-05-31 22:04:00,78.1,76.1,0.00,ESE,112,6.3,6.3,92,0.00,,,-99.99,Homeseer,2013-06-01 02:04:00,
2013-05-31 22:14:00,77.5,75.3,0.00,South,180,6.0,6.0,91,0.00,,,-99.99,Homeseer,2013-06-01 02:14:00,
2013-05-31 22:23:00,77.5,75.8,0.00,SSE,157,5.6,5.6,93,0.00,,,-99.99,Homeseer,2013-06-01 02:23:00,
2013-05-31 22:33:00,77.4,75.7,0.00,SE,135,2.7,2.7,93,0.00,,,-99.99,Homeseer,2013-06-01 02:33:00,
2013-05-31 22:43:00,77.2,75.7,0.00,East,90,3.1,3.8,94,0.00,,,-99.99,Homeseer,2013-06-01 02:43:00,
2013-05-31 22:53:00,77.4,76.2,0.00,SE,135,0.0,2.0,95,0.00,,,-99.99,Homeseer,2013-06-01 02:53:00,
2013-05-31 23:03:00,77.5,76.0,0.00,ESE,112,4.5,4.5,94,0.00,,,-99.99,Homeseer,2013-06-01 03:03:00,
2013-05-31 23:13:00,77.7,76.2,0.00,ESE,112,6.0,6.0,94,0.00,,,-99.99,Homeseer,2013-06-01 03:13:00,
2013-05-31 23:23:00,77.7,76.5,0.00,SSE,157,6.9,6.9,95,0.66,,,-99.99,Homeseer,2013-06-01 03:23:00,
2013-05-31 23:33:00,77.5,76.0,0.00,ESE,112,6.7,8.7,94,0.66,,,-99.99,Homeseer,2013-06-01 03:33:00,
2013-05-31 23:43:00,77.5,76.0,0.00,SE,135,7.2,7.2,94,0.66,,,-99.99,Homeseer,2013-06-01 03:43:00,
2013-05-31 23:53:00,77.5,75.8,0.00,ESE,112,7.4,8.7,93,0.66,,,-99.99,Homeseer,2013-06-01 03:53:00,